createdAt,value
2017-05-04T00:01:03.965Z,13.62
2017-05-04T00:02:14.306Z,13.69
2017-05-04T00:03:24.656Z,13.6
2017-05-04T00:04:34.985Z,13.62
2017-05-04T00:05:45.022Z,13.62
2017-05-04T00:06:55.347Z,13.62
2017-05-04T00:08:05.098Z,13.55
2017-05-04T00:09:15.430Z,13.54
2017-05-04T00:10:25.752Z,13.62
2017-05-04T00:11:35.797Z,13.6
2017-05-04T00:12:46.158Z,13.57
2017-05-04T00:13:56.193Z,13.62
2017-05-04T00:15:06.217Z,13.51
2017-05-04T00:16:16.241Z,13.58
2017-05-04T00:17:26.268Z,13.55
2017-05-04T00:18:36.311Z,13.57
2017-05-04T00:19:46.660Z,13.58
2017-05-04T00:20:56.382Z,13.6
2017-05-04T00:22:06.099Z,13.58
2017-05-04T00:23:16.447Z,13.53
2017-05-04T00:24:26.800Z,13.57
2017-05-04T00:25:37.159Z,13.65
2017-05-04T00:26:47.510Z,13.66
2017-05-04T00:27:57.539Z,13.68
2017-05-04T00:29:07.898Z,13.7
2017-05-04T00:30:17.937Z,13.69
2017-05-04T00:31:27.975Z,13.72
2017-05-04T00:32:38.309Z,13.75
2017-05-04T00:33:48.651Z,13.78
2017-05-04T00:34:58.988Z,13.7
2017-05-04T00:36:09.029Z,13.76
2017-05-04T00:37:19.380Z,13.73
2017-05-04T00:38:29.727Z,13.78
2017-05-04T00:39:39.781Z,13.72
2017-05-04T00:40:50.122Z,13.76
2017-05-04T00:42:00.465Z,13.7
2017-05-04T00:43:10.826Z,13.73
2017-05-04T00:44:21.191Z,13.76
2017-05-04T00:45:31.215Z,13.69
2017-05-04T00:46:41.567Z,13.73
2017-05-04T00:47:51.911Z,13.73
2017-05-04T00:49:02.265Z,13.78
2017-05-04T00:50:12.609Z,13.84
2017-05-04T00:51:22.961Z,13.76
2017-05-04T00:52:33.301Z,13.76
2017-05-04T00:53:43.655Z,13.78
2017-05-04T00:54:53.998Z,13.76
2017-05-04T00:56:04.335Z,13.79
2017-05-04T00:57:14.673Z,13.76
2017-05-04T00:58:24.379Z,13.7
2017-05-04T00:59:34.729Z,13.76
2017-05-04T01:00:44.757Z,13.76
2017-05-04T01:01:55.094Z,13.73
2017-05-04T01:03:05.437Z,13.75
2017-05-04T01:04:15.484Z,13.75
2017-05-04T01:05:25.841Z,13.73
2017-05-04T01:06:36.183Z,13.69
2017-05-04T01:07:46.217Z,13.7
2017-05-04T01:08:56.588Z,13.62
2017-05-04T01:10:06.944Z,13.65
2017-05-04T01:11:17.296Z,13.66
2017-05-04T01:12:27.340Z,13.55
2017-05-04T01:13:37.674Z,13.63
2017-05-04T01:14:48.018Z,13.5
2017-05-04T01:15:58.347Z,13.57
2017-05-04T01:17:08.680Z,13.51
2017-05-04T01:18:18.408Z,13.44
2017-05-04T01:19:28.768Z,13.48
2017-05-04T01:20:39.110Z,13.47
2017-05-04T01:21:49.136Z,13.5
2017-05-04T01:22:58.874Z,13.45
2017-05-04T01:24:08.932Z,13.4
2017-05-04T01:25:19.314Z,13.5
2017-05-04T01:26:29.650Z,13.32
2017-05-04T01:27:39.697Z,13.24
2017-05-04T01:28:50.044Z,13.28
2017-05-04T01:30:00.125Z,13.19
2017-05-04T01:31:10.483Z,13.2
2017-05-04T01:32:20.549Z,13.17
2017-05-04T01:33:30.575Z,13.11
2017-05-04T01:34:40.907Z,13.06
2017-05-04T01:35:51.260Z,12.99
2017-05-04T01:37:01.626Z,12.96
2017-05-04T01:38:11.365Z,12.92
2017-05-04T01:39:21.712Z,12.78
2017-05-04T01:40:32.050Z,12.8
2017-05-04T01:41:42.392Z,12.76
2017-05-04T01:42:52.753Z,12.73
2017-05-04T01:44:03.103Z,12.62
2017-05-04T01:45:13.434Z,12.63
2017-05-04T01:46:23.772Z,12.53
2017-05-04T01:47:34.115Z,12.53
2017-05-04T01:48:44.480Z,12.56
2017-05-04T01:49:54.571Z,12.48
2017-05-04T01:51:04.589Z,12.41
2017-05-04T01:52:14.307Z,12.4
2017-05-04T01:53:24.324Z,12.33
2017-05-04T01:54:34.657Z,12.33
2017-05-04T01:55:44.987Z,12.33
2017-05-04T01:56:55.313Z,12.34
2017-05-04T01:58:05.352Z,12.31
2017-05-04T01:59:15.699Z,12.34
2017-05-04T02:00:26.042Z,12.28
2017-05-04T02:01:36.431Z,12.38
2017-05-04T02:02:46.774Z,12.29
2017-05-04T02:03:57.108Z,12.29
2017-05-04T02:05:07.470Z,12.4
2017-05-04T02:06:17.807Z,12.43
2017-05-04T02:07:27.820Z,12.51
2017-05-04T02:08:38.164Z,12.59
2017-05-04T02:09:48.523Z,12.48
2017-05-04T02:10:58.888Z,12.59
2017-05-04T02:12:09.236Z,12.61
2017-05-04T02:13:19.697Z,12.63
2017-05-04T02:14:29.734Z,12.76
2017-05-04T02:15:39.759Z,12.8
2017-05-04T02:16:50.121Z,12.74
2017-05-04T02:18:00.165Z,12.71
2017-05-04T02:19:10.509Z,12.8
2017-05-04T02:20:20.849Z,12.83
2017-05-04T02:21:31.194Z,12.88
2017-05-04T02:22:41.530Z,12.92
2017-05-04T02:23:51.878Z,12.89
2017-05-04T02:25:02.253Z,12.77
2017-05-04T02:26:12.286Z,12.89
2017-05-04T02:27:22.354Z,12.89
2017-05-04T02:28:31.745Z,12.77
2017-05-04T02:29:42.095Z,12.78
2017-05-04T02:30:52.514Z,12.81
2017-05-04T02:32:02.858Z,12.81
2017-05-04T02:33:12.276Z,12.91
2017-05-04T02:34:22.609Z,12.91
2017-05-04T02:35:32.634Z,12.98
2017-05-04T02:36:42.976Z,13.01
2017-05-04T02:37:53.308Z,12.98
2017-05-04T02:39:03.665Z,12.98
2017-05-04T02:40:13.696Z,13.09
2017-05-04T02:41:24.030Z,13.02
2017-05-04T02:42:34.367Z,13.14
2017-05-04T02:43:44.717Z,13.11
2017-05-04T02:44:55.080Z,13.17
2017-05-04T02:46:05.107Z,13.17
2017-05-04T02:47:15.455Z,13.1
2017-05-04T02:48:25.518Z,13.17
2017-05-04T02:49:35.550Z,13.16
2017-05-04T02:50:45.584Z,13.19
2017-05-04T02:51:55.945Z,13.19
2017-05-04T02:53:06.299Z,13.27
2017-05-04T02:54:16.645Z,13.25
2017-05-04T02:55:27.001Z,13.28
2017-05-04T02:56:37.331Z,13.28
2017-05-04T02:57:47.369Z,13.31
2017-05-04T02:58:57.403Z,13.24
2017-05-04T03:00:07.746Z,13.37
2017-05-04T03:01:18.089Z,13.32
2017-05-04T03:33:03.730Z,10.66
2017-05-04T03:34:14.076Z,10.67
2017-05-04T03:35:24.414Z,10.65
2017-05-04T03:36:34.151Z,10.73
2017-05-04T03:37:44.488Z,10.8
2017-05-04T03:38:54.854Z,10.91
2017-05-04T03:40:05.201Z,10.95
2017-05-04T03:41:15.549Z,11.12
2017-05-04T03:42:25.572Z,11.23
2017-05-04T03:43:35.906Z,11.45
2017-05-04T03:44:45.915Z,11.63
2017-05-04T03:45:55.944Z,11.79
2017-05-04T03:47:05.970Z,11.89
2017-05-04T03:48:16.309Z,12.08
2017-05-04T03:49:26.353Z,12.25
2017-05-04T03:50:36.754Z,12.38
2017-05-04T03:51:46.792Z,12.58
2017-05-04T03:52:57.166Z,12.61
2017-05-04T03:54:07.507Z,12.8
2017-05-04T03:55:17.528Z,12.88
2017-05-04T03:56:27.870Z,13.01
2017-05-04T03:57:38.198Z,13.09
2017-05-04T03:58:48.564Z,13.2
2017-05-04T03:59:58.920Z,13.27
2017-05-04T04:01:08.956Z,13.39
2017-05-04T04:02:19.313Z,13.48
2017-05-04T04:03:29.660Z,13.47
2017-05-04T04:04:39.682Z,13.47
2017-05-04T04:05:50.028Z,13.6
2017-05-04T04:07:00.058Z,13.57
2017-05-04T04:08:10.397Z,13.65
2017-05-04T04:09:20.735Z,13.68
2017-05-04T04:10:31.081Z,13.73
2017-05-04T04:11:41.111Z,13.83
2017-05-04T04:12:51.443Z,13.95
2017-05-04T04:14:01.493Z,13.94
2017-05-04T04:15:11.852Z,14.03
2017-05-04T04:16:22.196Z,13.94
2017-05-04T04:17:32.781Z,14.09
2017-05-04T04:18:42.551Z,14.09
2017-05-04T04:19:52.900Z,14.11
2017-05-04T04:21:03.253Z,14.08
2017-05-04T04:22:13.278Z,14.12
2017-05-04T04:23:23.634Z,14.21
2017-05-04T04:24:33.683Z,14.16
2017-05-04T04:25:44.048Z,14.19
2017-05-04T04:26:54.084Z,14.13
2017-05-04T04:28:04.435Z,14.21
2017-05-04T04:29:14.782Z,14.27
2017-05-04T04:30:24.827Z,14.26
2017-05-04T04:31:34.555Z,14.28
2017-05-04T04:32:44.897Z,14.27
2017-05-04T04:33:55.247Z,14.34
2017-05-04T04:35:05.584Z,14.33
2017-05-04T04:36:15.923Z,14.36
2017-05-04T04:37:25.955Z,14.44
2017-05-04T04:38:36.297Z,14.44
2017-05-04T04:39:46.325Z,14.41
2017-05-04T04:40:56.676Z,14.46
2017-05-04T04:42:07.015Z,14.51
2017-05-04T04:43:17.127Z,14.46
2017-05-04T04:44:27.495Z,14.61
2017-05-04T04:45:37.895Z,14.57
2017-05-04T04:46:48.298Z,14.51
2017-05-04T04:47:58.378Z,14.67
2017-05-04T04:49:08.760Z,14.67
2017-05-04T04:50:18.797Z,14.7
2017-05-04T04:51:29.148Z,14.66
2017-05-04T04:52:39.528Z,14.69
2017-05-04T04:53:49.883Z,14.7
2017-05-04T04:55:00.244Z,14.7
2017-05-04T04:56:10.629Z,14.79
2017-05-04T04:57:20.973Z,14.79
2017-05-04T04:58:31.565Z,14.87
2017-05-04T04:59:41.647Z,14.87
2017-05-04T05:00:52.000Z,14.9
2017-05-04T05:02:02.327Z,14.85
2017-05-04T05:03:12.697Z,14.86
2017-05-04T05:04:23.041Z,15.01
2017-05-04T05:05:33.073Z,15.07
2017-05-04T05:06:43.425Z,15.12
2017-05-04T05:07:53.789Z,15.2
2017-05-04T05:09:03.520Z,15.27
2017-05-04T05:10:13.870Z,15.33
2017-05-04T05:11:23.903Z,15.45
2017-05-04T05:12:34.259Z,15.58
2017-05-04T05:13:44.657Z,15.6
2017-05-04T05:14:55.025Z,15.59
2017-05-04T05:16:05.367Z,15.68
2017-05-04T05:17:15.708Z,15.74
2017-05-04T05:18:26.062Z,15.71
2017-05-04T05:19:36.430Z,15.8
2017-05-04T05:20:46.788Z,15.8
2017-05-04T05:21:56.526Z,15.8
2017-05-04T05:23:06.912Z,15.91
2017-05-04T05:24:17.267Z,15.84
2017-05-04T05:25:27.638Z,15.92
2017-05-04T05:26:37.673Z,15.88
2017-05-04T05:27:48.014Z,15.89
2017-05-04T05:28:58.095Z,15.88
2017-05-04T05:30:08.116Z,16
2017-05-04T05:31:18.148Z,15.95
2017-05-04T05:32:28.495Z,16.06
2017-05-04T05:33:38.841Z,16
2017-05-04T05:34:49.188Z,16.07
2017-05-04T05:35:59.530Z,16.1
2017-05-04T05:37:09.877Z,16.17
2017-05-04T05:38:20.229Z,16.11
2017-05-04T05:39:30.575Z,16.07
2017-05-04T05:40:40.938Z,16.13
2017-05-04T05:41:51.284Z,16.08
2017-05-04T05:43:01.637Z,16.1
2017-05-04T05:44:11.992Z,16.18
2017-05-04T05:45:22.339Z,16.18
2017-05-04T05:46:32.064Z,16.26
2017-05-04T05:47:42.112Z,16.22
2017-05-04T05:48:52.455Z,16.25
2017-05-04T05:50:02.805Z,16.21
2017-05-04T05:51:13.157Z,16.34
2017-05-04T05:52:23.181Z,16.27
2017-05-04T05:53:32.904Z,16.36
2017-05-04T05:54:43.255Z,16.42
2017-05-04T05:55:53.605Z,16.47
2017-05-04T05:57:03.955Z,16.49
2017-05-04T05:58:14.007Z,16.54
2017-05-04T05:59:24.370Z,16.57
2017-05-04T06:00:34.401Z,16.65
2017-05-04T06:01:44.743Z,16.69
2017-05-04T06:02:55.114Z,16.73
2017-05-04T06:04:05.461Z,16.74
2017-05-04T06:05:15.818Z,16.81
2017-05-04T06:06:26.165Z,16.82
2017-05-04T06:07:36.556Z,16.95
2017-05-04T06:08:46.606Z,16.88
2017-05-04T06:09:56.954Z,17
2017-05-04T06:11:07.323Z,17.02
2017-05-04T06:12:17.659Z,17.03
2017-05-04T06:13:27.382Z,17.03
2017-05-04T06:14:37.716Z,17.05
2017-05-04T06:15:48.064Z,17.06
2017-05-04T06:16:58.106Z,17.1
2017-05-04T06:18:08.469Z,17.06
2017-05-04T06:19:18.205Z,17.12
2017-05-04T06:20:28.244Z,17.1
2017-05-04T06:21:38.274Z,17.03
2017-05-04T06:22:48.612Z,17.05
2017-05-04T06:23:58.973Z,17.06
2017-05-04T06:25:08.694Z,17.06
2017-05-04T06:26:19.030Z,17.09
2017-05-04T06:27:29.389Z,17.1
2017-05-04T06:28:39.751Z,17.03
2017-05-04T06:29:49.793Z,17.09
2017-05-04T06:31:00.174Z,17.09
2017-05-04T06:32:10.526Z,17.12
2017-05-04T06:33:20.561Z,17.13
2017-05-04T06:34:30.904Z,17.27
2017-05-04T06:35:41.254Z,17.28
2017-05-04T06:36:51.590Z,17.22
2017-05-04T06:38:01.942Z,17.3
2017-05-04T06:39:11.964Z,17.32
2017-05-04T06:40:22.020Z,17.3
2017-05-04T06:41:32.377Z,17.32
2017-05-04T06:42:42.413Z,17.35
2017-05-04T06:43:52.439Z,17.43
2017-05-04T06:45:02.779Z,17.43
2017-05-04T06:46:12.822Z,17.43
2017-05-04T06:47:22.851Z,17.4
2017-05-04T06:48:32.880Z,17.45
2017-05-04T06:49:42.912Z,17.43
2017-05-04T06:50:53.265Z,17.38
2017-05-04T06:52:03.300Z,17.35
2017-05-04T06:53:13.643Z,17.38
2017-05-04T06:54:23.681Z,17.36
2017-05-04T06:55:34.052Z,17.38
2017-05-04T06:56:44.413Z,17.28
2017-05-04T06:57:54.769Z,17.38
2017-05-04T06:59:04.503Z,17.35
2017-05-04T07:00:14.859Z,17.42
2017-05-04T07:01:24.895Z,17.66
2017-05-04T07:02:35.253Z,17.87
2017-05-04T07:03:45.603Z,18.03
2017-05-04T07:04:55.956Z,18.19
2017-05-04T07:06:06.002Z,18.26
2017-05-04T07:07:16.330Z,18.59
2017-05-04T07:08:26.677Z,18.54
2017-05-04T07:09:37.013Z,18.6
2017-05-04T07:10:47.369Z,18.78
2017-05-04T07:11:57.394Z,18.9
2017-05-04T07:13:07.436Z,18.9
2017-05-04T07:14:17.781Z,18.93
2017-05-04T07:15:27.802Z,18.97
2017-05-04T07:16:38.136Z,19.05
2017-05-04T07:17:48.495Z,19.2
2017-05-04T07:18:58.946Z,19.45
2017-05-04T07:20:08.669Z,19.63
2017-05-04T07:21:19.011Z,19.75
2017-05-04T07:22:29.083Z,19.8
2017-05-04T07:23:39.150Z,19.8
2017-05-04T07:24:49.196Z,19.68
2017-05-04T07:25:59.538Z,19.61
2017-05-04T07:27:09.905Z,19.64
2017-05-04T07:28:19.933Z,19.6
2017-05-04T07:29:30.286Z,19.6
2017-05-04T07:30:40.324Z,19.49
2017-05-04T07:31:50.358Z,19.42
2017-05-04T07:33:00.705Z,19.4
2017-05-04T07:34:11.040Z,19.4
2017-05-04T07:35:21.082Z,19.45
2017-05-04T07:36:31.434Z,19.43
2017-05-04T07:37:41.498Z,19.52
2017-05-04T07:38:51.858Z,19.61
2017-05-04T07:40:02.200Z,19.67
2017-05-04T07:41:12.554Z,19.61
2017-05-04T07:42:22.594Z,19.7
2017-05-04T07:43:32.942Z,19.52
2017-05-04T07:44:42.972Z,19.52
2017-05-04T07:45:53.302Z,19.37
2017-05-04T07:47:03.379Z,19.35
2017-05-04T07:48:13.417Z,19.31
2017-05-04T07:49:23.757Z,19.27
2017-05-04T07:50:34.103Z,19.23
2017-05-04T07:51:44.454Z,19.23
2017-05-04T07:52:54.811Z,19.24
2017-05-04T07:54:04.862Z,19.23
2017-05-04T07:55:15.193Z,19.16
2017-05-04T07:56:25.529Z,19.1
2017-05-04T07:57:35.873Z,19.16
2017-05-04T07:58:45.604Z,19.09
2017-05-04T07:59:55.647Z,19.15
2017-05-04T08:01:05.693Z,19.25
2017-05-04T08:02:15.469Z,19.45
2017-05-04T08:03:25.532Z,19.56
2017-05-04T08:04:35.901Z,19.65
2017-05-04T08:05:45.934Z,19.83
2017-05-04T08:06:55.977Z,19.98
2017-05-04T08:08:06.377Z,20.05
2017-05-04T08:09:16.726Z,20.11
2017-05-04T08:10:27.062Z,20.12
2017-05-04T08:11:37.642Z,20.07
2017-05-04T08:12:47.682Z,20.01
2017-05-04T08:13:58.040Z,20.04
2017-05-04T08:15:08.051Z,19.97
2017-05-04T08:16:18.093Z,20
2017-05-04T08:17:28.426Z,20.07
2017-05-04T08:18:38.773Z,20.11
2017-05-04T08:19:49.133Z,20.2
2017-05-04T08:20:59.486Z,20.38
2017-05-04T08:22:09.855Z,20.42
2017-05-04T08:23:20.210Z,20.63
2017-05-04T08:24:30.554Z,20.83
2017-05-04T08:25:40.916Z,20.94
2017-05-04T08:26:50.960Z,21.09
2017-05-04T08:28:01.294Z,21.25
2017-05-04T08:29:11.025Z,21.38
2017-05-04T08:30:21.067Z,21.45
2017-05-04T08:31:31.403Z,21.45
2017-05-04T08:32:41.754Z,21.45
2017-05-04T08:33:52.118Z,21.61
2017-05-04T08:35:02.465Z,21.78
2017-05-04T08:36:12.819Z,21.8
2017-05-04T08:37:23.174Z,21.94
2017-05-04T08:38:33.514Z,21.94
2017-05-04T08:39:43.856Z,22.22
2017-05-04T08:40:54.210Z,22.33
2017-05-04T08:42:04.553Z,22.57
2017-05-04T08:43:14.581Z,22.79
2017-05-04T08:44:24.622Z,23.15
2017-05-04T08:45:34.643Z,23.29
2017-05-04T08:46:45.007Z,23.47
2017-05-04T08:47:55.364Z,23.56
2017-05-04T08:49:05.711Z,23.48
2017-05-04T08:50:15.744Z,23.38
2017-05-04T08:51:26.095Z,23.25
2017-05-04T08:52:36.155Z,23.24
2017-05-04T08:53:46.497Z,23.18
2017-05-04T08:54:56.544Z,23.18
2017-05-04T08:56:06.583Z,23.15
2017-05-04T08:57:16.967Z,23.15
2017-05-04T08:58:27.350Z,23.19
2017-05-04T08:59:37.708Z,23.16
2017-05-04T09:00:47.776Z,23.12
2017-05-04T09:01:58.128Z,23.1
2017-05-04T09:03:08.490Z,22.92
2017-05-04T09:04:18.866Z,22.85
2017-05-04T09:05:29.222Z,22.85
2017-05-04T09:06:39.566Z,22.85
2017-05-04T09:07:49.912Z,22.89
2017-05-04T09:09:00.268Z,22.96
2017-05-04T09:10:10.626Z,23.03
2017-05-04T09:11:21.025Z,23.14
2017-05-04T09:12:31.397Z,23.14
2017-05-04T09:13:41.439Z,23.14
2017-05-04T09:14:51.797Z,23
2017-05-04T09:16:02.160Z,22.91
2017-05-04T09:17:12.197Z,22.81
2017-05-04T09:18:22.546Z,22.79
2017-05-04T09:19:32.604Z,22.64
2017-05-04T09:20:42.956Z,22.48
2017-05-04T09:21:53.022Z,22.49
2017-05-04T09:23:03.374Z,22.3
2017-05-04T09:24:13.718Z,22.26
2017-05-04T09:25:24.067Z,22.2
2017-05-04T09:26:34.107Z,22.22
2017-05-04T09:27:44.457Z,22.12
2017-05-04T09:28:54.812Z,22.14
2017-05-04T09:30:05.158Z,22.18
2017-05-04T09:31:15.510Z,22.23
2017-05-04T09:32:25.860Z,22.26
2017-05-04T09:33:35.890Z,22.45
2017-05-04T09:34:46.236Z,22.79
2017-05-04T09:35:56.597Z,22.92
2017-05-04T09:37:06.654Z,23.04
2017-05-04T09:38:17.025Z,23.14
2017-05-04T09:39:27.100Z,23.12
2017-05-04T09:40:36.822Z,23.15
2017-05-04T09:41:47.197Z,23.18
2017-05-04T09:42:57.546Z,23.14
2017-05-04T09:44:07.597Z,23.22
2017-05-04T09:45:17.643Z,23.37
2017-05-04T09:46:28.002Z,23.62
2017-05-04T09:47:38.347Z,23.7
2017-05-04T09:48:48.708Z,23.89
2017-05-04T09:49:58.779Z,24.11
2017-05-04T09:51:09.146Z,24.22
2017-05-04T09:52:19.512Z,24.34
2017-05-04T09:53:29.864Z,24.44
2017-05-04T09:54:40.256Z,24.44
2017-05-04T09:55:50.311Z,24.27
2017-05-04T09:57:00.694Z,24.19
2017-05-04T09:58:11.065Z,24.07
2017-05-04T09:59:21.421Z,23.9
2017-05-04T10:00:31.825Z,23.75
2017-05-04T10:01:42.169Z,23.7
2017-05-04T10:02:51.926Z,23.64
2017-05-04T10:04:01.964Z,23.66
2017-05-04T10:05:11.996Z,23.79
2017-05-04T10:06:22.383Z,23.96
2017-05-04T10:07:32.744Z,24.03
2017-05-04T10:08:43.109Z,24.32
2017-05-04T10:09:53.498Z,24.51
2017-05-04T10:11:03.558Z,24.7
2017-05-04T10:12:13.909Z,24.7
2017-05-04T10:13:24.293Z,24.71
2017-05-04T10:14:34.645Z,24.56
2017-05-04T10:15:45.013Z,24.69
2017-05-04T10:16:55.412Z,24.78
2017-05-04T10:18:05.782Z,24.82
2017-05-04T10:19:16.147Z,24.82
2017-05-04T10:20:25.899Z,24.8
2017-05-04T10:21:35.636Z,24.83
2017-05-04T10:22:45.981Z,24.75
2017-05-04T10:23:56.334Z,24.69
2017-05-04T10:25:06.697Z,24.77
2017-05-04T10:26:17.067Z,24.64
2017-05-04T10:27:27.400Z,24.67
2017-05-04T10:28:37.787Z,24.64
2017-05-04T10:29:47.508Z,24.8
2017-05-04T10:30:57.868Z,24.69
2017-05-04T10:32:08.211Z,24.8
2017-05-04T10:33:18.638Z,24.9
2017-05-04T10:34:29.023Z,24.71
2017-05-04T10:35:39.404Z,24.4
2017-05-04T10:36:49.762Z,24
2017-05-04T10:38:00.130Z,23.84
2017-05-04T10:39:10.481Z,23.7
2017-05-04T10:40:20.523Z,23.59
2017-05-04T10:41:30.555Z,23.6
2017-05-04T10:42:40.899Z,23.7
2017-05-04T10:43:51.246Z,23.78
2017-05-04T10:45:01.609Z,23.87
2017-05-04T10:46:12.005Z,23.82
2017-05-04T10:47:22.363Z,23.64
2017-05-04T10:48:32.726Z,23.48
2017-05-04T10:49:43.096Z,23.34
2017-05-04T10:50:53.139Z,23.28
2017-05-04T10:52:03.477Z,23.21
2017-05-04T10:53:13.503Z,23.18
2017-05-04T10:54:23.882Z,23.03
2017-05-04T10:55:34.227Z,22.92
2017-05-04T10:56:44.595Z,23.12
2017-05-04T10:57:54.946Z,23.24
2017-05-04T10:59:04.976Z,23.56
2017-05-04T11:00:15.326Z,23.75
2017-05-04T11:01:25.686Z,23.93
2017-05-04T11:02:36.129Z,24.03
2017-05-04T11:03:46.181Z,24.17
2017-05-04T11:04:56.531Z,24.32
2017-05-04T11:06:06.911Z,24.3
2017-05-04T11:07:16.977Z,24.26
2017-05-04T11:08:27.137Z,24.27
2017-05-04T11:09:37.505Z,24.26
2017-05-04T11:10:47.857Z,24.12
2017-05-04T11:11:58.206Z,24.04
2017-05-04T11:13:08.254Z,24.09
2017-05-04T11:14:18.601Z,23.78
2017-05-04T11:15:28.945Z,23.5
2017-05-04T11:16:39.290Z,23.09
2017-05-04T11:17:49.638Z,22.92
2017-05-04T11:18:59.995Z,22.89
2017-05-04T11:20:10.429Z,22.91
2017-05-04T11:21:20.832Z,22.94
2017-05-04T11:22:30.900Z,22.79
2017-05-04T11:23:41.254Z,22.61
2017-05-04T11:24:51.623Z,22.51
2017-05-04T11:26:01.985Z,22.27
2017-05-04T11:27:12.374Z,22.24
2017-05-04T11:28:22.735Z,22.16
2017-05-04T11:29:33.110Z,22.15
2017-05-04T11:30:42.853Z,22.31
2017-05-04T11:31:53.236Z,22.57
2017-05-04T11:33:03.598Z,22.92
2017-05-04T11:34:13.959Z,23.14
2017-05-04T11:35:24.022Z,23.4
2017-05-04T11:36:33.779Z,23.5
2017-05-04T11:37:44.117Z,23.71
2017-05-04T11:38:54.475Z,23.77
2017-05-04T11:40:04.541Z,23.87
2017-05-04T11:41:14.582Z,23.97
2017-05-04T11:42:24.975Z,23.99
2017-05-04T11:43:35.030Z,24.02
2017-05-04T11:44:45.412Z,23.93
2017-05-04T11:45:55.482Z,23.74
2017-05-04T11:47:05.831Z,23.57
2017-05-04T11:48:15.882Z,23.26
2017-05-04T11:49:26.266Z,22.92
2017-05-04T11:50:36.333Z,22.92
2017-05-04T11:51:46.690Z,22.96
2017-05-04T11:52:56.764Z,23.07
2017-05-04T11:54:07.168Z,23.18
2017-05-04T11:55:17.216Z,23.18
2017-05-04T11:56:27.270Z,23.1
2017-05-04T11:57:37.640Z,22.92
2017-05-04T11:58:48.078Z,22.76
2017-05-04T11:59:57.839Z,22.52
2017-05-04T12:01:08.207Z,22.29
2017-05-04T12:02:18.573Z,21.93
2017-05-04T12:03:28.922Z,21.59
2017-05-04T12:04:39.279Z,21.45
2017-05-04T12:05:49.641Z,21.31
2017-05-04T12:06:59.735Z,21.12
2017-05-04T12:08:09.791Z,21.16
2017-05-04T12:09:20.145Z,21.33
2017-05-04T12:10:30.479Z,21.61
2017-05-04T12:11:40.844Z,21.85
2017-05-04T12:12:50.882Z,22.2
2017-05-04T12:14:01.230Z,22.39
2017-05-04T12:15:11.579Z,22.6
2017-05-04T12:16:21.925Z,22.59
2017-05-04T12:17:32.285Z,22.75
2017-05-04T12:18:42.631Z,22.82
2017-05-04T12:19:52.994Z,22.92
2017-05-04T12:21:03.034Z,23.24
2017-05-04T12:22:13.137Z,23.56
2017-05-04T12:23:23.498Z,23.71
2017-05-04T12:24:33.877Z,24.11
2017-05-04T12:25:44.220Z,24.32
2017-05-04T12:26:54.583Z,24.7
2017-05-04T12:28:04.938Z,24.83
2017-05-04T12:29:15.304Z,24.97
2017-05-04T12:30:25.677Z,25.09
2017-05-04T12:31:36.042Z,25.24
2017-05-04T12:32:46.408Z,25.29
2017-05-04T12:33:56.773Z,25.15
2017-05-04T12:35:06.829Z,25.12
2017-05-04T12:36:16.860Z,25.15
2017-05-04T12:37:27.219Z,25.22
2017-05-04T12:38:37.599Z,25.05
2017-05-04T12:39:47.951Z,25.05
2017-05-04T12:40:58.316Z,25.07
2017-05-04T12:42:08.371Z,25.05
2017-05-04T12:43:18.715Z,25.04
2017-05-04T12:44:28.472Z,24.86
2017-05-04T12:45:38.826Z,24.77
2017-05-04T12:46:49.185Z,24.58
2017-05-04T12:47:59.529Z,24.39
2017-05-04T12:49:09.887Z,24.29
2017-05-04T12:50:19.926Z,24.29
2017-05-04T12:51:30.270Z,24.44
2017-05-04T12:52:40.028Z,24.46
2017-05-04T12:53:49.479Z,24.74
2017-05-04T12:54:59.844Z,24.83
2017-05-04T12:56:10.192Z,24.86
2017-05-04T12:57:20.553Z,25
2017-05-04T12:58:30.912Z,25.01
2017-05-04T12:59:41.292Z,24.8
2017-05-04T13:00:51.640Z,24.71
2017-05-04T13:02:01.361Z,24.44
2017-05-04T13:03:11.715Z,24.15
2017-05-04T13:04:22.073Z,23.84
2017-05-04T13:05:32.433Z,23.6
2017-05-04T13:06:42.779Z,23.37
2017-05-04T13:07:52.825Z,23.15
2017-05-04T13:09:03.181Z,22.94
2017-05-04T13:10:13.566Z,22.82
2017-05-04T13:11:23.945Z,22.73
2017-05-04T13:12:34.290Z,22.79
2017-05-04T13:13:44.648Z,22.91
2017-05-04T13:14:55.008Z,22.94
2017-05-04T13:16:05.042Z,23.09
2017-05-04T13:17:15.417Z,23.15
2017-05-04T13:18:25.757Z,23.25
2017-05-04T13:19:36.136Z,23.22
2017-05-04T13:20:45.859Z,23.41
2017-05-04T13:21:56.195Z,23.38
2017-05-04T13:23:06.539Z,23.42
2017-05-04T13:24:16.897Z,23.47
2017-05-04T13:25:27.258Z,23.56
2017-05-04T13:26:37.619Z,23.62
2017-05-04T13:27:47.982Z,23.66
2017-05-04T13:28:58.339Z,23.71
2017-05-04T13:30:08.392Z,23.85
2017-05-04T13:31:18.734Z,23.87
2017-05-04T13:32:28.765Z,24.02
2017-05-04T13:33:39.104Z,24.07
2017-05-04T13:34:49.181Z,24.12
2017-05-04T13:35:59.550Z,24.22
2017-05-04T13:37:09.921Z,24.26
2017-05-04T13:38:20.269Z,24.36
2017-05-04T13:39:30.655Z,24.34
2017-05-04T13:40:40.717Z,24.27
2017-05-04T13:41:51.114Z,24.55
2017-05-04T13:43:01.475Z,24.74
2017-05-04T13:44:11.842Z,25.34
2017-05-04T13:45:22.182Z,25.6
2017-05-04T13:46:32.540Z,25.56
2017-05-04T13:47:42.905Z,25.7
2017-05-04T13:48:53.268Z,25.6
2017-05-04T13:50:03.640Z,25.7
2017-05-04T13:51:14.034Z,25.66
2017-05-04T13:52:24.400Z,25.32
2017-05-04T13:53:34.133Z,25.17
2017-05-04T13:54:44.513Z,24.92
2017-05-04T13:55:54.883Z,24.78
2017-05-04T13:57:05.218Z,24.7
2017-05-04T13:58:15.260Z,24.75
2017-05-04T13:59:25.606Z,24.8
2017-05-04T14:00:35.973Z,24.9
2017-05-04T14:01:46.339Z,24.82
2017-05-04T14:02:56.693Z,24.78
2017-05-04T14:04:06.746Z,24.69
2017-05-04T14:05:17.104Z,24.7
2017-05-04T14:06:27.156Z,24.64
2017-05-04T14:07:37.521Z,24.44
2017-05-04T14:08:47.916Z,24.18
2017-05-04T14:09:58.011Z,24
2017-05-04T14:11:07.738Z,23.9
2017-05-04T14:12:18.107Z,24.15
2017-05-04T14:13:28.466Z,24.15
2017-05-04T14:14:38.190Z,24.19
2017-05-04T14:15:47.913Z,24.14
2017-05-04T14:16:58.261Z,24.45
2017-05-04T14:18:08.615Z,24.56
2017-05-04T14:19:18.668Z,24.71
2017-05-04T14:20:29.020Z,24.89
2017-05-04T14:21:39.387Z,24.94
2017-05-04T14:22:49.427Z,24.94
2017-05-04T14:23:59.782Z,25.14
2017-05-04T14:25:10.132Z,25.05
2017-05-04T14:26:20.476Z,24.82
2017-05-04T14:27:30.832Z,24.63
2017-05-04T14:28:41.169Z,24.26
2017-05-04T14:29:51.215Z,24.08
2017-05-04T14:31:01.565Z,23.67
2017-05-04T14:32:11.906Z,23.47
2017-05-04T14:33:21.962Z,23.18
2017-05-04T14:34:31.996Z,22.89
2017-05-04T14:35:42.053Z,22.88
2017-05-04T14:36:52.396Z,22.92
2017-05-04T14:38:02.740Z,22.96
2017-05-04T14:39:12.778Z,22.94
2017-05-04T14:40:23.127Z,22.69
2017-05-04T14:41:33.161Z,22.46
2017-05-04T14:42:43.507Z,22.44
2017-05-04T14:43:53.548Z,22.41
2017-05-04T14:45:03.949Z,22.33
2017-05-04T14:46:14.325Z,22.26
2017-05-04T14:47:24.673Z,22.27
2017-05-04T14:48:35.032Z,22.26
2017-05-04T14:49:45.384Z,22.16
2017-05-04T14:50:55.726Z,22.16
2017-05-04T14:52:06.074Z,22.08
2017-05-04T14:53:16.457Z,22.12
2017-05-04T14:54:26.492Z,22.2
2017-05-04T14:55:36.885Z,22.15
2017-05-04T14:56:47.240Z,22.09
2017-05-04T14:57:57.595Z,22.23
2017-05-04T14:59:07.327Z,22.18
2017-05-04T15:00:17.699Z,22.3
2017-05-04T15:01:28.060Z,22.27
2017-05-04T15:02:38.408Z,22.34
2017-05-04T15:03:48.758Z,22.34
2017-05-04T15:04:59.104Z,22.3
2017-05-04T15:06:09.459Z,22.39
2017-05-04T15:07:19.519Z,22.38
2017-05-04T15:08:29.879Z,22.41
2017-05-04T15:09:40.216Z,22.51
2017-05-04T15:10:50.586Z,22.55
2017-05-04T15:12:00.606Z,22.57
2017-05-04T15:13:10.653Z,22.67
2017-05-04T15:14:20.990Z,22.66
2017-05-04T15:15:31.340Z,22.54
2017-05-04T15:16:41.069Z,22.52
2017-05-04T15:17:51.430Z,22.42
2017-05-04T15:19:01.784Z,22
2017-05-04T15:20:12.140Z,21.78
2017-05-04T15:21:22.500Z,21.9
2017-05-04T15:22:32.539Z,21.97
2017-05-04T15:23:42.886Z,22.04
2017-05-04T15:24:53.268Z,22.08
2017-05-04T15:26:03.610Z,22.16
2017-05-04T15:27:13.955Z,22.18
2017-05-04T15:28:24.301Z,22.15
2017-05-04T15:29:34.658Z,21.97
2017-05-04T15:30:45.012Z,21.71
2017-05-04T15:31:55.363Z,21.59
2017-05-04T15:33:05.731Z,21.46
2017-05-04T15:34:15.775Z,21.31
2017-05-04T15:35:25.511Z,21.22
2017-05-04T15:36:35.545Z,21.11
2017-05-04T15:37:45.900Z,20.93
2017-05-04T15:38:56.251Z,20.91
2017-05-04T15:40:06.598Z,20.93